Aviation Digital Data Service (ADDS)

Output produced by METARs form (1202 UTC 24 February 2018)
found at http://www.aviationweather.gov/adds/metars/
 
TAF EEEI 241130Z 2412/2512 03010KT 9000 -SN SCT011 BKN017 
     PROB40 
     TEMPO 2412/2422 4000 SN BKN012 
     TEMPO 2422/2507 2000 SN BKN009
       
EEKA 240850Z 03007KT 360V060 3300 +SN BKN015 M08/M11 Q1036
EEKE 241150Z AUTO 03010KT 9999NDV FEW021 M09/M13 Q1036
TAF EEKE 240800Z 2409/2415 05009KT 9999 SCT025 
     PROB30 
     TEMPO 2409/2415 2500 SN BKN010 BKN020
       
EEPU 241150Z 01006KT 9999 FEW008 SCT016 M10/M14 Q1035
EETN 241150Z 02009KT 350V050 5000 SN BKN013 M11/M13 Q1036 R08/420295 NOSIG
TAF EETN 241130Z 2412/2512 03008KT 5000 SN SCT009 BKN013 
     TEMPO 2412/2420 2000 SN BKN006 
     TEMPO 2420/2507 1000 SN BR BKN004
       
EETU 241150Z 02008KT 9999 FEW011 BKN021 M11/M17 Q1033
TAF EETU 240700Z 2408/2414 02005KT 9999 SCT020 
     PROB40 
     TEMPO 2408/2414 3000 SN BKN010